Airfield :
LOGIN :

Register | Disclaimer

   EN    FR    IT 

 










Legend :    VFR   Marginal VFR   IFR   Intensive IFR   Very Intensive IFR
Visi :
Ceiling :
>= 8 km
>= 3000ft
5 to 8 km
1000 to 3000 ft
1500m to 5 km
500 to 1000 ft
800 to 1500m
200 to 500 ft
< 800m
< 200 ft
Symbols :   Thunderstorms  Fog  Heavy snow  Heavy precipitations  Wind > 20 kt
SIGMETs :     Misc.  Thunderstorms  Icing  Turbulence  Mountain Waves  Volcanic Ashes






- Airport Elevation : 83 ft
- IATA code : LHR


EGLL - London Heathrow

CURRENT METAR :
  • 100920Z AUTO 19012KT 9999 SCT020/// BKN029/// BKN034/// //////TCU 09/07 Q1017 TEMPO RA

EXPIRED METARs :
  • 100850Z AUTO 20013KT 9999 SCT031 08/06 Q1018 TEMPO RA
  • 100820Z AUTO 19015KT 9999 FEW025 BKN029 08/06 Q1018
  • 100750Z AUTO 20012KT 9999 FEW028 BKN033 07/05 Q1019
  • 100720Z AUTO VRB05KT 9999 BKN031 04/03 Q1019 NOSIG

TAF TAF EGLL
Valid from the 10 at 06:00 until the 11 at 12:00 UTC


100501Z 1006/1112 19005KT 9999 SCT030
BECMG 1007/1010 19015G25KT
BECMG 1011/1014 20020G38KT BKN012
TEMPO 1011/1023 6000 RA
PROB30
TEMPO 1014/1019 BKN008
PROB30
TEMPO 1017/1020 4000 +RA
BECMG 1019/1022 26008KT FEW025
TEMPO 1019/1021 25015G28KT



MET'MAP, your aeronautical weather chart ! - Copyright ORBIFLY December 2007 - Disclaimer

ORBIFLY MET'MAP TEAM :

Programming & Development : Alexandra Zaïnal
Concept & original design : Baudouin d'Aumeries
Assistance for programming : Marc-Olivier Méhu
Technical & hardware support : Manuel Goepfert

Contact : metmap@orbifly.com




SOURCES & CREDITS :

   NOAA